Terminal Aerodrome Forecast
Issued by NWS

Home | Current Version | Previous Version | Text Only | Print | Product List | Glossary On
Versions: 1 2 3 4 5 6 7 8 9 10 11 12 13 14 15 16 17 18 19 20 21 22 23 24 25
000
FTUS43 KMKX 240522
TAFUES
TAF
KUES 240522Z 2406/2506 34006KT P6SM SCT020
     FM240645 34005KT P6SM BKN019
     FM240800 02004KT P6SM SCT020
     FM241400 05008KT P6SM BKN022
     FM242300 09015KT P6SM -SHRA OVC015
     FM250100 10015G25KT 6SM -RA OVC008
     FM250300 12015G26KT 4SM -RA BR OVC003 WS020/15045KT=

USA.gov is the U.S. government's official web portal to all federal, state and local government web resources and services.